sensor_id;sensor_type;location;lat;lon;timestamp;P1;durP1;ratioP1;P2;durP2;ratioP2
47599;SDS011;33323;52.124;6.018;2023-08-17T00:01:45;5.28;;;2.22;;
47599;SDS011;33323;52.124;6.018;2023-08-17T00:04:12;2.50;;;1.58;;
47599;SDS011;33323;52.124;6.018;2023-08-17T00:06:39;7.15;;;2.15;;
47599;SDS011;33323;52.124;6.018;2023-08-17T00:09:06;6.07;;;1.80;;
47599;SDS011;33323;52.124;6.018;2023-08-17T00:11:33;5.57;;;2.00;;
47599;SDS011;33323;52.124;6.018;2023-08-17T00:14:00;4.60;;;1.80;;
47599;SDS011;33323;52.124;6.018;2023-08-17T00:16:28;6.45;;;2.35;;
47599;SDS011;33323;52.124;6.018;2023-08-17T00:18:55;6.32;;;1.73;;
47599;SDS011;33323;52.124;6.018;2023-08-17T00:21:23;5.55;;;1.65;;
47599;SDS011;33323;52.124;6.018;2023-08-17T00:23:50;4.95;;;2.67;;
47599;SDS011;33323;52.124;6.018;2023-08-17T00:26:17;4.10;;;2.03;;
47599;SDS011;33323;52.124;6.018;2023-08-17T00:28:44;5.78;;;2.20;;
47599;SDS011;33323;52.124;6.018;2023-08-17T00:31:11;5.70;;;2.00;;
47599;SDS011;33323;52.124;6.018;2023-08-17T00:33:38;5.22;;;2.30;;
47599;SDS011;33323;52.124;6.018;2023-08-17T00:36:07;2.85;;;2.00;;
47599;SDS011;33323;52.124;6.018;2023-08-17T00:38:34;7.47;;;2.22;;
47599;SDS011;33323;52.124;6.018;2023-08-17T00:41:01;7.70;;;3.20;;
47599;SDS011;33323;52.124;6.018;2023-08-17T00:43:28;6.25;;;2.17;;
47599;SDS011;33323;52.124;6.018;2023-08-17T00:45:56;7.63;;;2.10;;
47599;SDS011;33323;52.124;6.018;2023-08-17T00:48:23;3.47;;;2.17;;
47599;SDS011;33323;52.124;6.018;2023-08-17T00:50:50;6.63;;;3.10;;
47599;SDS011;33323;52.124;6.018;2023-08-17T00:53:19;4.93;;;3.67;;
47599;SDS011;33323;52.124;6.018;2023-08-17T00:55:50;9.40;;;2.55;;
47599;SDS011;33323;52.124;6.018;2023-08-17T00:58:20;5.53;;;2.15;;
47599;SDS011;33323;52.124;6.018;2023-08-17T01:00:47;4.72;;;2.33;;
47599;SDS011;33323;52.124;6.018;2023-08-17T01:03:15;5.80;;;2.22;;
47599;SDS011;33323;52.124;6.018;2023-08-17T01:05:44;3.30;;;2.22;;
47599;SDS011;33323;52.124;6.018;2023-08-17T01:08:11;7.60;;;2.67;;
47599;SDS011;33323;52.124;6.018;2023-08-17T01:13:21;4.65;;;2.42;;
47599;SDS011;33323;52.124;6.018;2023-08-17T01:15:59;5.97;;;2.58;;
47599;SDS011;33323;52.124;6.018;2023-08-17T01:18:33;9.88;;;3.63;;
47599;SDS011;33323;52.124;6.018;2023-08-17T01:21:05;6.90;;;3.00;;
47599;SDS011;33323;52.124;6.018;2023-08-17T01:23:34;4.13;;;2.35;;
47599;SDS011;33323;52.124;6.018;2023-08-17T01:26:01;9.23;;;2.47;;
47599;SDS011;33323;52.124;6.018;2023-08-17T01:28:28;8.43;;;3.30;;
47599;SDS011;33323;52.124;6.018;2023-08-17T01:31:00;10.63;;;2.92;;
47599;SDS011;33323;52.124;6.018;2023-08-17T01:33:40;5.72;;;2.40;;
47599;SDS011;33323;52.124;6.018;2023-08-17T01:36:13;5.15;;;2.88;;
47599;SDS011;33323;52.124;6.018;2023-08-17T01:39:02;4.82;;;2.25;;
47599;SDS011;33323;52.124;6.018;2023-08-17T01:41:31;9.40;;;3.25;;
47599;SDS011;33323;52.124;6.018;2023-08-17T01:43:59;4.85;;;2.40;;
47599;SDS011;33323;52.124;6.018;2023-08-17T01:46:31;7.40;;;2.85;;
47599;SDS011;33323;52.124;6.018;2023-08-17T01:48:59;8.07;;;2.40;;
47599;SDS011;33323;52.124;6.018;2023-08-17T01:51:27;7.60;;;2.72;;
47599;SDS011;33323;52.124;6.018;2023-08-17T01:53:54;8.70;;;2.58;;
47599;SDS011;33323;52.124;6.018;2023-08-17T01:56:21;10.20;;;2.63;;
47599;SDS011;33323;52.124;6.018;2023-08-17T01:58:49;4.45;;;2.00;;
47599;SDS011;33323;52.124;6.018;2023-08-17T02:01:16;7.00;;;2.53;;
47599;SDS011;33323;52.124;6.018;2023-08-17T02:03:43;3.38;;;2.30;;
47599;SDS011;33323;52.124;6.018;2023-08-17T02:06:10;6.88;;;2.67;;
47599;SDS011;33323;52.124;6.018;2023-08-17T02:08:37;6.88;;;2.58;;
47599;SDS011;33323;52.124;6.018;2023-08-17T02:11:05;5.95;;;1.90;;
47599;SDS011;33323;52.124;6.018;2023-08-17T02:13:32;6.05;;;2.40;;
47599;SDS011;33323;52.124;6.018;2023-08-17T02:16:05;11.50;;;3.40;;
47599;SDS011;33323;52.124;6.018;2023-08-17T02:18:32;4.70;;;2.28;;
47599;SDS011;33323;52.124;6.018;2023-08-17T02:21:01;4.90;;;2.28;;
47599;SDS011;33323;52.124;6.018;2023-08-17T02:23:28;6.07;;;2.33;;
47599;SDS011;33323;52.124;6.018;2023-08-17T02:25:55;7.53;;;3.38;;
47599;SDS011;33323;52.124;6.018;2023-08-17T02:28:22;10.10;;;2.25;;
47599;SDS011;33323;52.124;6.018;2023-08-17T02:30:54;5.85;;;2.28;;
47599;SDS011;33323;52.124;6.018;2023-08-17T02:33:22;6.65;;;2.80;;
47599;SDS011;33323;52.124;6.018;2023-08-17T02:35:51;5.70;;;3.13;;
47599;SDS011;33323;52.124;6.018;2023-08-17T02:38:18;7.50;;;2.20;;
47599;SDS011;33323;52.124;6.018;2023-08-17T02:40:45;6.18;;;2.28;;
47599;SDS011;33323;52.124;6.018;2023-08-17T02:43:15;7.07;;;2.83;;
47599;SDS011;33323;52.124;6.018;2023-08-17T02:45:43;3.40;;;2.53;;
47599;SDS011;33323;52.124;6.018;2023-08-17T02:48:10;12.00;;;4.25;;
47599;SDS011;33323;52.124;6.018;2023-08-17T02:50:37;9.32;;;2.90;;
47599;SDS011;33323;52.124;6.018;2023-08-17T02:53:05;5.88;;;2.28;;
47599;SDS011;33323;52.124;6.018;2023-08-17T02:55:32;4.05;;;2.50;;
47599;SDS011;33323;52.124;6.018;2023-08-17T02:58:00;6.28;;;2.83;;
47599;SDS011;33323;52.124;6.018;2023-08-17T03:00:27;3.75;;;2.15;;
47599;SDS011;33323;52.124;6.018;2023-08-17T03:02:54;6.35;;;3.20;;
47599;SDS011;33323;52.124;6.018;2023-08-17T03:05:21;4.30;;;2.13;;
47599;SDS011;33323;52.124;6.018;2023-08-17T03:07:48;9.82;;;2.05;;
47599;SDS011;33323;52.124;6.018;2023-08-17T03:10:15;13.73;;;2.38;;
47599;SDS011;33323;52.124;6.018;2023-08-17T03:12:44;8.07;;;2.60;;
47599;SDS011;33323;52.124;6.018;2023-08-17T03:15:11;6.07;;;2.13;;
47599;SDS011;33323;52.124;6.018;2023-08-17T03:17:38;4.25;;;2.08;;
47599;SDS011;33323;52.124;6.018;2023-08-17T03:20:06;5.00;;;2.17;;
47599;SDS011;33323;52.124;6.018;2023-08-17T03:22:34;6.07;;;2.25;;
47599;SDS011;33323;52.124;6.018;2023-08-17T03:25:01;9.02;;;2.22;;
47599;SDS011;33323;52.124;6.018;2023-08-17T03:27:29;10.00;;;2.83;;
47599;SDS011;33323;52.124;6.018;2023-08-17T03:29:56;3.65;;;1.73;;
47599;SDS011;33323;52.124;6.018;2023-08-17T03:32:23;4.88;;;2.30;;
47599;SDS011;33323;52.124;6.018;2023-08-17T03:34:50;8.98;;;2.95;;
47599;SDS011;33323;52.124;6.018;2023-08-17T03:37:17;5.88;;;2.97;;
47599;SDS011;33323;52.124;6.018;2023-08-17T03:39:44;4.47;;;1.75;;
47599;SDS011;33323;52.124;6.018;2023-08-17T03:42:12;9.40;;;3.13;;
47599;SDS011;33323;52.124;6.018;2023-08-17T03:44:39;5.80;;;1.92;;
47599;SDS011;33323;52.124;6.018;2023-08-17T03:47:06;5.22;;;2.40;;
47599;SDS011;33323;52.124;6.018;2023-08-17T03:49:33;5.03;;;1.75;;
47599;SDS011;33323;52.124;6.018;2023-08-17T03:52:00;4.60;;;1.90;;
47599;SDS011;33323;52.124;6.018;2023-08-17T03:54:27;7.10;;;2.28;;
47599;SDS011;33323;52.124;6.018;2023-08-17T03:56:54;3.92;;;1.90;;
47599;SDS011;33323;52.124;6.018;2023-08-17T03:59:21;4.65;;;1.83;;
47599;SDS011;33323;52.124;6.018;2023-08-17T04:01:50;4.68;;;1.77;;
47599;SDS011;33323;52.124;6.018;2023-08-17T04:04:17;4.63;;;2.00;;
47599;SDS011;33323;52.124;6.018;2023-08-17T04:06:44;5.25;;;3.13;;
47599;SDS011;33323;52.124;6.018;2023-08-17T04:09:11;8.50;;;2.17;;
47599;SDS011;33323;52.124;6.018;2023-08-17T04:11:39;3.92;;;2.92;;
47599;SDS011;33323;52.124;6.018;2023-08-17T04:14:06;6.30;;;2.75;;
47599;SDS011;33323;52.124;6.018;2023-08-17T04:16:35;7.82;;;2.20;;
47599;SDS011;33323;52.124;6.018;2023-08-17T04:19:02;6.55;;;2.10;;
47599;SDS011;33323;52.124;6.018;2023-08-17T04:21:30;5.53;;;2.50;;
47599;SDS011;33323;52.124;6.018;2023-08-17T04:23:57;3.42;;;1.80;;
47599;SDS011;33323;52.124;6.018;2023-08-17T04:26:24;4.88;;;2.97;;
47599;SDS011;33323;52.124;6.018;2023-08-17T04:28:51;5.88;;;2.15;;
47599;SDS011;33323;52.124;6.018;2023-08-17T04:31:18;6.40;;;2.30;;
47599;SDS011;33323;52.124;6.018;2023-08-17T04:33:53;3.38;;;2.35;;
47599;SDS011;33323;52.124;6.018;2023-08-17T04:36:20;6.00;;;2.30;;
47599;SDS011;33323;52.124;6.018;2023-08-17T04:38:47;4.70;;;1.90;;
47599;SDS011;33323;52.124;6.018;2023-08-17T04:41:14;8.15;;;2.10;;
47599;SDS011;33323;52.124;6.018;2023-08-17T04:43:43;6.22;;;2.53;;
47599;SDS011;33323;52.124;6.018;2023-08-17T04:46:13;2.92;;;1.70;;
47599;SDS011;33323;52.124;6.018;2023-08-17T04:48:40;11.05;;;2.70;;
47599;SDS011;33323;52.124;6.018;2023-08-17T04:51:08;7.65;;;2.10;;
47599;SDS011;33323;52.124;6.018;2023-08-17T04:53:35;4.53;;;2.38;;
47599;SDS011;33323;52.124;6.018;2023-08-17T04:56:02;3.55;;;2.08;;
47599;SDS011;33323;52.124;6.018;2023-08-17T04:58:30;3.67;;;2.08;;
47599;SDS011;33323;52.124;6.018;2023-08-17T05:00:59;4.75;;;1.95;;
47599;SDS011;33323;52.124;6.018;2023-08-17T05:03:26;4.78;;;2.20;;
47599;SDS011;33323;52.124;6.018;2023-08-17T05:06:00;4.82;;;2.00;;
47599;SDS011;33323;52.124;6.018;2023-08-17T05:08:27;4.80;;;2.00;;
47599;SDS011;33323;52.124;6.018;2023-08-17T05:10:54;4.28;;;1.88;;
47599;SDS011;33323;52.124;6.018;2023-08-17T05:13:24;3.63;;;1.60;;
47599;SDS011;33323;52.124;6.018;2023-08-17T05:15:52;3.90;;;2.15;;
47599;SDS011;33323;52.124;6.018;2023-08-17T05:18:21;3.40;;;1.58;;
47599;SDS011;33323;52.124;6.018;2023-08-17T05:20:48;7.57;;;2.13;;
47599;SDS011;33323;52.124;6.018;2023-08-17T05:23:15;8.70;;;2.70;;
47599;SDS011;33323;52.124;6.018;2023-08-17T05:25:45;4.53;;;2.03;;
47599;SDS011;33323;52.124;6.018;2023-08-17T05:28:14;6.25;;;1.85;;
47599;SDS011;33323;52.124;6.018;2023-08-17T05:30:41;4.53;;;2.33;;
47599;SDS011;33323;52.124;6.018;2023-08-17T05:33:09;5.75;;;2.30;;
47599;SDS011;33323;52.124;6.018;2023-08-17T05:35:36;8.68;;;2.28;;
47599;SDS011;33323;52.124;6.018;2023-08-17T05:38:03;8.25;;;2.60;;
47599;SDS011;33323;52.124;6.018;2023-08-17T05:40:30;5.78;;;2.10;;
47599;SDS011;33323;52.124;6.018;2023-08-17T05:42:58;3.35;;;2.47;;
47599;SDS011;33323;52.124;6.018;2023-08-17T05:45:25;5.05;;;1.80;;
47599;SDS011;33323;52.124;6.018;2023-08-17T05:47:53;4.95;;;1.75;;
47599;SDS011;33323;52.124;6.018;2023-08-17T05:50:20;4.07;;;2.00;;
47599;SDS011;33323;52.124;6.018;2023-08-17T05:52:47;7.25;;;2.40;;
47599;SDS011;33323;52.124;6.018;2023-08-17T05:55:14;12.60;;;2.40;;
47599;SDS011;33323;52.124;6.018;2023-08-17T05:57:41;5.35;;;1.63;;
47599;SDS011;33323;52.124;6.018;2023-08-17T06:00:08;5.40;;;1.80;;
47599;SDS011;33323;52.124;6.018;2023-08-17T06:02:41;5.32;;;1.67;;
47599;SDS011;33323;52.124;6.018;2023-08-17T06:05:08;3.92;;;1.85;;
47599;SDS011;33323;52.124;6.018;2023-08-17T06:07:36;5.53;;;2.10;;
47599;SDS011;33323;52.124;6.018;2023-08-17T06:10:03;6.80;;;3.10;;
47599;SDS011;33323;52.124;6.018;2023-08-17T06:12:32;7.20;;;2.30;;
47599;SDS011;33323;52.124;6.018;2023-08-17T06:15:01;7.78;;;2.70;;
47599;SDS011;33323;52.124;6.018;2023-08-17T06:17:29;6.03;;;2.35;;
47599;SDS011;33323;52.124;6.018;2023-08-17T06:19:56;8.93;;;2.60;;
47599;SDS011;33323;52.124;6.018;2023-08-17T06:22:23;2.78;;;2.08;;
47599;SDS011;33323;52.124;6.018;2023-08-17T06:24:50;7.45;;;2.40;;
47599;SDS011;33323;52.124;6.018;2023-08-17T06:27:18;5.35;;;3.42;;
47599;SDS011;33323;52.124;6.018;2023-08-17T06:29:45;8.60;;;3.22;;
47599;SDS011;33323;52.124;6.018;2023-08-17T06:32:12;3.47;;;2.22;;
47599;SDS011;33323;52.124;6.018;2023-08-17T06:34:40;5.40;;;2.35;;
47599;SDS011;33323;52.124;6.018;2023-08-17T06:37:07;7.63;;;3.53;;
47599;SDS011;33323;52.124;6.018;2023-08-17T06:39:34;5.15;;;3.10;;
47599;SDS011;33323;52.124;6.018;2023-08-17T06:42:02;5.68;;;2.10;;
47599;SDS011;33323;52.124;6.018;2023-08-17T06:44:29;5.70;;;2.10;;
47599;SDS011;33323;52.124;6.018;2023-08-17T06:46:57;6.13;;;2.22;;
47599;SDS011;33323;52.124;6.018;2023-08-17T06:49:26;5.85;;;2.05;;
47599;SDS011;33323;52.124;6.018;2023-08-17T06:51:54;4.47;;;2.03;;
47599;SDS011;33323;52.124;6.018;2023-08-17T06:54:21;7.90;;;2.17;;
47599;SDS011;33323;52.124;6.018;2023-08-17T06:56:48;5.57;;;2.10;;
47599;SDS011;33323;52.124;6.018;2023-08-17T06:59:15;4.10;;;1.98;;
47599;SDS011;33323;52.124;6.018;2023-08-17T07:01:43;4.55;;;2.63;;
47599;SDS011;33323;52.124;6.018;2023-08-17T07:04:10;5.65;;;1.95;;
47599;SDS011;33323;52.124;6.018;2023-08-17T07:06:38;5.63;;;2.15;;
47599;SDS011;33323;52.124;6.018;2023-08-17T07:09:07;5.18;;;2.05;;
47599;SDS011;33323;52.124;6.018;2023-08-17T07:11:35;5.50;;;2.22;;
47599;SDS011;33323;52.124;6.018;2023-08-17T07:14:02;5.00;;;2.17;;
47599;SDS011;33323;52.124;6.018;2023-08-17T07:16:30;5.38;;;2.20;;
47599;SDS011;33323;52.124;6.018;2023-08-17T07:18:58;4.15;;;2.13;;
47599;SDS011;33323;52.124;6.018;2023-08-17T07:21:25;7.53;;;2.20;;
47599;SDS011;33323;52.124;6.018;2023-08-17T07:23:53;4.68;;;2.20;;
47599;SDS011;33323;52.124;6.018;2023-08-17T07:26:22;7.85;;;2.65;;
47599;SDS011;33323;52.124;6.018;2023-08-17T07:28:50;3.85;;;2.10;;
47599;SDS011;33323;52.124;6.018;2023-08-17T07:31:17;9.10;;;2.55;;
47599;SDS011;33323;52.124;6.018;2023-08-17T07:33:45;7.00;;;2.45;;
47599;SDS011;33323;52.124;6.018;2023-08-17T07:36:12;5.00;;;2.58;;
47599;SDS011;33323;52.124;6.018;2023-08-17T07:38:40;4.53;;;1.98;;
47599;SDS011;33323;52.124;6.018;2023-08-17T07:41:08;7.50;;;1.90;;
47599;SDS011;33323;52.124;6.018;2023-08-17T07:43:35;6.18;;;3.03;;
47599;SDS011;33323;52.124;6.018;2023-08-17T07:46:03;6.68;;;2.28;;
47599;SDS011;33323;52.124;6.018;2023-08-17T07:48:31;6.25;;;3.05;;
47599;SDS011;33323;52.124;6.018;2023-08-17T07:51:00;7.07;;;2.13;;
47599;SDS011;33323;52.124;6.018;2023-08-17T07:53:28;4.55;;;2.28;;
47599;SDS011;33323;52.124;6.018;2023-08-17T07:55:55;8.70;;;3.13;;
47599;SDS011;33323;52.124;6.018;2023-08-17T07:58:24;6.95;;;2.35;;
47599;SDS011;33323;52.124;6.018;2023-08-17T08:00:51;6.65;;;2.33;;
47599;SDS011;33323;52.124;6.018;2023-08-17T08:03:19;8.30;;;2.42;;
47599;SDS011;33323;52.124;6.018;2023-08-17T08:05:46;7.47;;;3.22;;
47599;SDS011;33323;52.124;6.018;2023-08-17T08:08:14;11.13;;;2.78;;
47599;SDS011;33323;52.124;6.018;2023-08-17T08:10:44;8.80;;;2.45;;
47599;SDS011;33323;52.124;6.018;2023-08-17T08:13:11;8.43;;;2.50;;
47599;SDS011;33323;52.124;6.018;2023-08-17T08:15:40;8.73;;;2.58;;
47599;SDS011;33323;52.124;6.018;2023-08-17T08:18:08;11.52;;;4.00;;
47599;SDS011;33323;52.124;6.018;2023-08-17T08:20:37;7.00;;;2.30;;
47599;SDS011;33323;52.124;6.018;2023-08-17T08:23:05;6.00;;;2.05;;
47599;SDS011;33323;52.124;6.018;2023-08-17T08:25:33;6.97;;;2.15;;
47599;SDS011;33323;52.124;6.018;2023-08-17T08:28:00;5.10;;;2.55;;
47599;SDS011;33323;52.124;6.018;2023-08-17T08:30:28;4.50;;;1.75;;
47599;SDS011;33323;52.124;6.018;2023-08-17T08:32:55;7.88;;;4.13;;
47599;SDS011;33323;52.124;6.018;2023-08-17T08:35:24;5.38;;;1.90;;
47599;SDS011;33323;52.124;6.018;2023-08-17T08:37:53;6.55;;;2.13;;
47599;SDS011;33323;52.124;6.018;2023-08-17T08:40:26;5.35;;;3.10;;
47599;SDS011;33323;52.124;6.018;2023-08-17T08:42:58;7.55;;;2.17;;
47599;SDS011;33323;52.124;6.018;2023-08-17T08:45:27;6.18;;;2.10;;
47599;SDS011;33323;52.124;6.018;2023-08-17T08:47:57;8.30;;;2.95;;
47599;SDS011;33323;52.124;6.018;2023-08-17T08:50:27;9.55;;;3.13;;
47599;SDS011;33323;52.124;6.018;2023-08-17T08:52:59;12.07;;;3.00;;
47599;SDS011;33323;52.124;6.018;2023-08-17T08:55:32;5.53;;;2.17;;
47599;SDS011;33323;52.124;6.018;2023-08-17T08:58:11;4.63;;;2.03;;
47599;SDS011;33323;52.124;6.018;2023-08-17T09:00:39;8.15;;;3.55;;
47599;SDS011;33323;52.124;6.018;2023-08-17T09:03:07;7.13;;;3.50;;
47599;SDS011;33323;52.124;6.018;2023-08-17T09:05:36;15.68;;;4.78;;
47599;SDS011;33323;52.124;6.018;2023-08-17T09:08:08;10.88;;;2.80;;
47599;SDS011;33323;52.124;6.018;2023-08-17T09:10:36;9.95;;;3.28;;
47599;SDS011;33323;52.124;6.018;2023-08-17T09:13:04;10.10;;;3.45;;
47599;SDS011;33323;52.124;6.018;2023-08-17T09:15:31;9.85;;;3.13;;
47599;SDS011;33323;52.124;6.018;2023-08-17T09:17:58;9.48;;;3.65;;
47599;SDS011;33323;52.124;6.018;2023-08-17T09:20:36;8.40;;;3.45;;
47599;SDS011;33323;52.124;6.018;2023-08-17T09:23:04;9.50;;;3.72;;
47599;SDS011;33323;52.124;6.018;2023-08-17T09:25:43;6.97;;;3.38;;
47599;SDS011;33323;52.124;6.018;2023-08-17T09:28:12;8.90;;;3.60;;
47599;SDS011;33323;52.124;6.018;2023-08-17T09:30:51;10.07;;;4.25;;
47599;SDS011;33323;52.124;6.018;2023-08-17T09:33:24;5.80;;;3.08;;
47599;SDS011;33323;52.124;6.018;2023-08-17T09:35:57;9.88;;;3.60;;
47599;SDS011;33323;52.124;6.018;2023-08-17T09:38:26;11.38;;;4.53;;
47599;SDS011;33323;52.124;6.018;2023-08-17T09:40:54;7.93;;;3.90;;
47599;SDS011;33323;52.124;6.018;2023-08-17T09:43:23;13.43;;;4.65;;
47599;SDS011;33323;52.124;6.018;2023-08-17T09:45:55;9.73;;;4.10;;
47599;SDS011;33323;52.124;6.018;2023-08-17T09:48:22;7.80;;;3.70;;
47599;SDS011;33323;52.124;6.018;2023-08-17T09:50:58;10.80;;;4.47;;
47599;SDS011;33323;52.124;6.018;2023-08-17T09:53:28;9.45;;;3.40;;
47599;SDS011;33323;52.124;6.018;2023-08-17T09:55:56;6.93;;;4.18;;
47599;SDS011;33323;52.124;6.018;2023-08-17T09:58:26;7.18;;;3.67;;
47599;SDS011;33323;52.124;6.018;2023-08-17T10:00:57;8.32;;;3.38;;
47599;SDS011;33323;52.124;6.018;2023-08-17T10:03:28;14.50;;;3.47;;
47599;SDS011;33323;52.124;6.018;2023-08-17T10:06:06;9.32;;;4.18;;
47599;SDS011;33323;52.124;6.018;2023-08-17T10:08:46;10.52;;;3.67;;
47599;SDS011;33323;52.124;6.018;2023-08-17T10:11:16;7.40;;;3.78;;
47599;SDS011;33323;52.124;6.018;2023-08-17T10:13:59;8.32;;;3.38;;
47599;SDS011;33323;52.124;6.018;2023-08-17T10:19:18;9.50;;;3.40;;
47599;SDS011;33323;52.124;6.018;2023-08-17T10:22:18;7.55;;;3.25;;
47599;SDS011;33323;52.124;6.018;2023-08-17T10:24:58;7.50;;;3.45;;
47599;SDS011;33323;52.124;6.018;2023-08-17T10:27:27;7.32;;;3.85;;
47599;SDS011;33323;52.124;6.018;2023-08-17T10:29:55;6.03;;;2.60;;
47599;SDS011;33323;52.124;6.018;2023-08-17T10:32:24;9.88;;;3.33;;
47599;SDS011;33323;52.124;6.018;2023-08-17T10:34:54;6.82;;;3.42;;
47599;SDS011;33323;52.124;6.018;2023-08-17T10:37:22;7.80;;;3.25;;
47599;SDS011;33323;52.124;6.018;2023-08-17T10:39:51;6.25;;;2.90;;
47599;SDS011;33323;52.124;6.018;2023-08-17T10:50:36;7.80;;;3.60;;
47599;SDS011;33323;52.124;6.018;2023-08-17T10:53:09;7.25;;;3.25;;
47599;SDS011;33323;52.124;6.018;2023-08-17T10:55:39;4.65;;;3.65;;
47599;SDS011;33323;52.124;6.018;2023-08-17T10:58:12;8.57;;;3.45;;
47599;SDS011;33323;52.124;6.018;2023-08-17T11:00:42;5.93;;;3.78;;
47599;SDS011;33323;52.124;6.018;2023-08-17T11:03:18;6.07;;;3.63;;
47599;SDS011;33323;52.124;6.018;2023-08-17T11:08:34;6.60;;;4.30;;
47599;SDS011;33323;52.124;6.018;2023-08-17T11:11:12;7.13;;;3.53;;
47599;SDS011;33323;52.124;6.018;2023-08-17T11:13:44;5.53;;;3.78;;
47599;SDS011;33323;52.124;6.018;2023-08-17T11:16:15;4.43;;;2.83;;
47599;SDS011;33323;52.124;6.018;2023-08-17T11:18:46;6.20;;;3.53;;
47599;SDS011;33323;52.124;6.018;2023-08-17T11:21:18;8.93;;;3.28;;
47599;SDS011;33323;52.124;6.018;2023-08-17T11:23:46;6.80;;;3.42;;
47599;SDS011;33323;52.124;6.018;2023-08-17T11:26:17;8.38;;;4.45;;
47599;SDS011;33323;52.124;6.018;2023-08-17T11:28:46;10.98;;;3.95;;
47599;SDS011;33323;52.124;6.018;2023-08-17T11:31:14;10.52;;;4.25;;
47599;SDS011;33323;52.124;6.018;2023-08-17T11:33:45;10.73;;;3.80;;
47599;SDS011;33323;52.124;6.018;2023-08-17T11:36:14;8.18;;;3.60;;
47599;SDS011;33323;52.124;6.018;2023-08-17T11:38:42;5.65;;;3.58;;
47599;SDS011;33323;52.124;6.018;2023-08-17T11:41:11;9.98;;;3.00;;
47599;SDS011;33323;52.124;6.018;2023-08-17T11:43:42;5.93;;;3.75;;
47599;SDS011;33323;52.124;6.018;2023-08-17T11:46:09;8.15;;;4.47;;
47599;SDS011;33323;52.124;6.018;2023-08-17T11:48:38;10.88;;;4.75;;
47599;SDS011;33323;52.124;6.018;2023-08-17T11:51:06;9.02;;;4.38;;
47599;SDS011;33323;52.124;6.018;2023-08-17T11:53:36;8.18;;;4.45;;
47599;SDS011;33323;52.124;6.018;2023-08-17T11:56:06;8.20;;;3.63;;
47599;SDS011;33323;52.124;6.018;2023-08-17T11:58:40;9.60;;;4.13;;
47599;SDS011;33323;52.124;6.018;2023-08-17T12:01:14;6.28;;;3.60;;
47599;SDS011;33323;52.124;6.018;2023-08-17T12:03:45;8.38;;;3.28;;
47599;SDS011;33323;52.124;6.018;2023-08-17T12:06:16;5.10;;;3.33;;
47599;SDS011;33323;52.124;6.018;2023-08-17T12:08:44;8.63;;;4.43;;
47599;SDS011;33323;52.124;6.018;2023-08-17T12:11:17;8.48;;;3.88;;
47599;SDS011;33323;52.124;6.018;2023-08-17T12:13:49;7.13;;;3.88;;
47599;SDS011;33323;52.124;6.018;2023-08-17T12:16:20;6.68;;;3.80;;
47599;SDS011;33323;52.124;6.018;2023-08-17T12:18:50;4.65;;;3.67;;
47599;SDS011;33323;52.124;6.018;2023-08-17T12:21:19;6.13;;;4.10;;
47599;SDS011;33323;52.124;6.018;2023-08-17T12:23:50;6.15;;;3.67;;
47599;SDS011;33323;52.124;6.018;2023-08-17T12:26:19;7.55;;;4.03;;
47599;SDS011;33323;52.124;6.018;2023-08-17T12:28:47;5.82;;;3.58;;
47599;SDS011;33323;52.124;6.018;2023-08-17T12:31:20;6.45;;;3.90;;
47599;SDS011;33323;52.124;6.018;2023-08-17T12:33:50;5.90;;;4.07;;
47599;SDS011;33323;52.124;6.018;2023-08-17T12:36:19;5.43;;;3.50;;
47599;SDS011;33323;52.124;6.018;2023-08-17T12:38:48;5.45;;;3.90;;
47599;SDS011;33323;52.124;6.018;2023-08-17T12:41:17;9.35;;;3.63;;
47599;SDS011;33323;52.124;6.018;2023-08-17T12:43:44;8.02;;;3.85;;
47599;SDS011;33323;52.124;6.018;2023-08-17T12:46:12;6.05;;;3.97;;
47599;SDS011;33323;52.124;6.018;2023-08-17T12:48:39;5.50;;;4.00;;
47599;SDS011;33323;52.124;6.018;2023-08-17T12:51:07;8.95;;;4.32;;
47599;SDS011;33323;52.124;6.018;2023-08-17T12:53:35;6.38;;;4.20;;
47599;SDS011;33323;52.124;6.018;2023-08-17T12:56:03;10.82;;;4.65;;
47599;SDS011;33323;52.124;6.018;2023-08-17T12:58:31;7.93;;;5.13;;
47599;SDS011;33323;52.124;6.018;2023-08-17T13:00:58;6.18;;;4.45;;
47599;SDS011;33323;52.124;6.018;2023-08-17T13:03:26;7.68;;;4.32;;
47599;SDS011;33323;52.124;6.018;2023-08-17T13:05:56;7.68;;;4.25;;
47599;SDS011;33323;52.124;6.018;2023-08-17T13:08:24;7.15;;;4.60;;
47599;SDS011;33323;52.124;6.018;2023-08-17T13:10:51;7.22;;;4.53;;
47599;SDS011;33323;52.124;6.018;2023-08-17T13:13:19;8.05;;;4.50;;
47599;SDS011;33323;52.124;6.018;2023-08-17T13:15:47;6.60;;;5.10;;
47599;SDS011;33323;52.124;6.018;2023-08-17T13:18:15;10.60;;;5.63;;
47599;SDS011;33323;52.124;6.018;2023-08-17T13:20:42;9.45;;;5.03;;
47599;SDS011;33323;52.124;6.018;2023-08-17T13:23:10;8.05;;;4.85;;
47599;SDS011;33323;52.124;6.018;2023-08-17T13:25:37;8.55;;;4.90;;
47599;SDS011;33323;52.124;6.018;2023-08-17T13:28:05;6.63;;;5.05;;
47599;SDS011;33323;52.124;6.018;2023-08-17T13:30:33;8.40;;;4.95;;
47599;SDS011;33323;52.124;6.018;2023-08-17T13:33:01;9.25;;;5.10;;
47599;SDS011;33323;52.124;6.018;2023-08-17T13:35:29;8.30;;;4.97;;
47599;SDS011;33323;52.124;6.018;2023-08-17T13:37:56;8.20;;;4.80;;
47599;SDS011;33323;52.124;6.018;2023-08-17T13:40:24;8.98;;;4.95;;
47599;SDS011;33323;52.124;6.018;2023-08-17T13:42:52;7.32;;;4.80;;
47599;SDS011;33323;52.124;6.018;2023-08-17T13:45:19;8.32;;;5.85;;
47599;SDS011;33323;52.124;6.018;2023-08-17T13:47:47;8.05;;;5.53;;
47599;SDS011;33323;52.124;6.018;2023-08-17T13:50:15;8.85;;;5.50;;
47599;SDS011;33323;52.124;6.018;2023-08-17T13:52:45;7.93;;;6.18;;
47599;SDS011;33323;52.124;6.018;2023-08-17T13:55:13;9.32;;;5.30;;
47599;SDS011;33323;52.124;6.018;2023-08-17T13:57:41;7.40;;;5.65;;
47599;SDS011;33323;52.124;6.018;2023-08-17T14:00:09;9.95;;;5.60;;
47599;SDS011;33323;52.124;6.018;2023-08-17T14:02:38;8.85;;;5.90;;
47599;SDS011;33323;52.124;6.018;2023-08-17T14:05:05;8.95;;;6.13;;
47599;SDS011;33323;52.124;6.018;2023-08-17T14:07:34;11.02;;;5.72;;
47599;SDS011;33323;52.124;6.018;2023-08-17T14:10:02;12.77;;;5.95;;
47599;SDS011;33323;52.124;6.018;2023-08-17T14:12:39;7.47;;;5.70;;
47599;SDS011;33323;52.124;6.018;2023-08-17T14:15:07;11.07;;;6.35;;
47599;SDS011;33323;52.124;6.018;2023-08-17T14:17:35;9.25;;;7.65;;
47599;SDS011;33323;52.124;6.018;2023-08-17T14:20:03;11.90;;;6.90;;
47599;SDS011;33323;52.124;6.018;2023-08-17T14:22:31;11.07;;;7.18;;
47599;SDS011;33323;52.124;6.018;2023-08-17T14:24:58;10.45;;;7.00;;
47599;SDS011;33323;52.124;6.018;2023-08-17T14:27:26;11.40;;;5.88;;
47599;SDS011;33323;52.124;6.018;2023-08-17T14:29:54;10.48;;;7.35;;
47599;SDS011;33323;52.124;6.018;2023-08-17T14:32:28;10.20;;;7.20;;
47599;SDS011;33323;52.124;6.018;2023-08-17T14:35:00;9.13;;;7.00;;
47599;SDS011;33323;52.124;6.018;2023-08-17T14:37:27;12.40;;;7.07;;
47599;SDS011;33323;52.124;6.018;2023-08-17T14:39:56;10.25;;;7.03;;
47599;SDS011;33323;52.124;6.018;2023-08-17T14:42:23;11.23;;;7.32;;
47599;SDS011;33323;52.124;6.018;2023-08-17T14:44:52;10.30;;;7.85;;
47599;SDS011;33323;52.124;6.018;2023-08-17T14:47:20;9.43;;;7.60;;
47599;SDS011;33323;52.124;6.018;2023-08-17T14:49:47;8.23;;;6.90;;
47599;SDS011;33323;52.124;6.018;2023-08-17T14:52:15;12.93;;;7.72;;
47599;SDS011;33323;52.124;6.018;2023-08-17T14:54:43;11.88;;;6.88;;
47599;SDS011;33323;52.124;6.018;2023-08-17T14:57:11;9.50;;;7.88;;
47599;SDS011;33323;52.124;6.018;2023-08-17T14:59:38;10.52;;;7.65;;
47599;SDS011;33323;52.124;6.018;2023-08-17T15:02:06;9.68;;;7.57;;
47599;SDS011;33323;52.124;6.018;2023-08-17T15:04:34;10.07;;;8.18;;
47599;SDS011;33323;52.124;6.018;2023-08-17T15:07:04;11.65;;;7.75;;
47599;SDS011;33323;52.124;6.018;2023-08-17T15:09:37;14.88;;;8.00;;
47599;SDS011;33323;52.124;6.018;2023-08-17T15:12:06;14.52;;;7.78;;